createdAt,value
2018-08-11T00:01:46.832Z,17.50
2018-08-11T00:04:14.538Z,17.50
2018-08-11T00:06:42.220Z,17.50
2018-08-11T00:09:11.184Z,17.50
2018-08-11T00:11:39.466Z,17.50
2018-08-11T00:14:07.196Z,17.40
2018-08-11T00:16:34.897Z,17.40
2018-08-11T00:19:02.612Z,17.30
2018-08-11T00:21:30.313Z,17.40
2018-08-11T00:23:58.034Z,17.40
2018-08-11T00:26:25.757Z,17.40
2018-08-11T00:28:53.476Z,17.40
2018-08-11T00:31:21.195Z,17.40
2018-08-11T00:33:48.879Z,17.40
2018-08-11T00:36:16.623Z,17.30
2018-08-11T00:38:44.380Z,17.40
2018-08-11T00:41:12.088Z,17.40
2018-08-11T00:43:39.752Z,17.50
2018-08-11T00:46:07.449Z,17.50
2018-08-11T00:48:35.204Z,17.50
2018-08-11T00:51:02.952Z,17.50
2018-08-11T00:53:30.858Z,17.50
2018-08-11T00:55:58.532Z,17.50
2018-08-11T00:58:26.264Z,17.50
2018-08-11T01:00:53.955Z,17.50
2018-08-11T01:03:21.702Z,17.40
2018-08-11T01:05:49.422Z,17.50
2018-08-11T01:08:17.128Z,17.50
2018-08-11T01:10:44.872Z,17.50
2018-08-11T01:13:12.613Z,17.50
2018-08-11T01:15:40.308Z,17.50
2018-08-11T01:18:07.996Z,17.50
2018-08-11T01:20:35.711Z,17.50
2018-08-11T01:23:03.420Z,17.50
2018-08-11T01:25:31.158Z,17.50
2018-08-11T01:27:58.884Z,17.60
2018-08-11T01:30:26.589Z,17.60
2018-08-11T01:32:54.276Z,17.70
2018-08-11T01:35:22.000Z,17.70
2018-08-11T01:37:49.741Z,17.60
2018-08-11T01:40:17.734Z,17.70
2018-08-11T01:42:46.741Z,17.70
2018-08-11T01:45:15.193Z,17.70
2018-08-11T01:47:43.071Z,17.70
2018-08-11T01:50:11.700Z,17.70
2018-08-11T01:52:40.553Z,17.70
2018-08-11T01:55:08.692Z,17.70
2018-08-11T01:57:36.392Z,17.70
2018-08-11T02:00:05.614Z,17.60
2018-08-11T02:02:33.313Z,17.70
2018-08-11T02:05:00.984Z,17.70
2018-08-11T02:07:28.704Z,17.70
2018-08-11T02:09:56.365Z,17.60
2018-08-11T02:12:24.121Z,17.60
2018-08-11T02:14:51.848Z,17.60
2018-08-11T02:17:19.564Z,17.60
2018-08-11T02:19:47.271Z,17.70
2018-08-11T02:22:14.991Z,17.70
2018-08-11T02:24:42.706Z,17.70
2018-08-11T02:27:10.369Z,17.80
2018-08-11T02:29:38.060Z,17.80
2018-08-11T02:32:05.829Z,17.90
2018-08-11T02:34:33.562Z,17.90
2018-08-11T02:37:01.261Z,18.00
2018-08-11T02:39:29.009Z,17.90
2018-08-11T02:41:56.700Z,17.90
2018-08-11T02:44:24.362Z,18.00
2018-08-11T02:46:52.083Z,17.90
2018-08-11T02:49:19.753Z,17.90
2018-08-11T02:51:47.451Z,17.90
2018-08-11T02:54:15.116Z,17.80
2018-08-11T02:56:42.840Z,17.80
2018-08-11T02:59:10.528Z,17.80
2018-08-11T03:01:38.224Z,17.80
2018-08-11T03:04:05.925Z,17.80
2018-08-11T03:06:33.667Z,17.70
2018-08-11T03:09:01.369Z,17.70
2018-08-11T03:11:29.068Z,17.70
2018-08-11T03:13:56.819Z,17.70
2018-08-11T03:16:24.475Z,17.60
2018-08-11T03:18:52.176Z,17.60
2018-08-11T03:21:19.833Z,17.60
2018-08-11T03:23:47.525Z,17.60
2018-08-11T03:26:15.197Z,17.50
2018-08-11T03:28:42.893Z,17.60
2018-08-11T03:31:10.558Z,17.50
2018-08-11T03:33:38.272Z,17.50
2018-08-11T03:36:06.000Z,17.50
2018-08-11T03:38:33.685Z,17.60
2018-08-11T03:41:01.380Z,17.50
2018-08-11T03:43:29.080Z,17.50
2018-08-11T03:45:56.840Z,17.60
2018-08-11T03:48:24.520Z,17.60
2018-08-11T03:50:52.206Z,17.60
2018-08-11T03:53:20.212Z,17.60
2018-08-11T03:55:47.925Z,17.60
2018-08-11T03:58:15.586Z,17.60
2018-08-11T04:00:43.250Z,17.60
2018-08-11T04:03:10.988Z,17.60
2018-08-11T04:05:38.684Z,17.60
2018-08-11T04:08:06.356Z,17.70
2018-08-11T04:10:34.032Z,17.70
2018-08-11T04:13:01.733Z,17.70
2018-08-11T04:15:29.395Z,17.70
2018-08-11T04:17:57.092Z,17.70
2018-08-11T04:20:24.798Z,17.70
2018-08-11T04:22:52.498Z,17.80
2018-08-11T04:25:20.196Z,17.80
2018-08-11T04:27:47.864Z,17.80
2018-08-11T04:30:15.561Z,17.80
2018-08-11T04:32:43.264Z,17.80
2018-08-11T04:35:10.967Z,17.80
2018-08-11T04:37:38.708Z,17.80
2018-08-11T04:40:06.571Z,17.80
2018-08-11T04:42:34.240Z,17.80
2018-08-11T04:45:02.036Z,17.80
2018-08-11T04:47:29.733Z,17.80
2018-08-11T04:49:57.415Z,17.80
2018-08-11T04:52:25.145Z,17.80
2018-08-11T04:54:52.801Z,17.80
2018-08-11T04:57:20.516Z,17.80
2018-08-11T04:59:48.216Z,17.90
2018-08-11T05:02:15.890Z,17.90
2018-08-11T05:04:43.576Z,18.00
2018-08-11T05:07:11.228Z,18.00
2018-08-11T05:09:38.963Z,18.00
2018-08-11T05:12:06.648Z,18.00
2018-08-11T05:14:34.348Z,18.00
2018-08-11T05:17:02.052Z,18.00
2018-08-11T05:19:29.710Z,18.00
2018-08-11T05:21:57.408Z,18.10
2018-08-11T05:24:25.120Z,18.10
2018-08-11T05:26:52.777Z,18.10
2018-08-11T05:29:20.480Z,18.10
2018-08-11T05:31:48.136Z,18.20
2018-08-11T05:34:15.816Z,18.20
2018-08-11T05:36:43.512Z,18.40
2018-08-11T05:39:13.312Z,18.50
2018-08-11T05:41:41.109Z,18.60
2018-08-11T05:44:08.819Z,18.60
2018-08-11T05:46:36.967Z,18.70
2018-08-11T05:49:04.919Z,18.70
2018-08-11T05:51:32.658Z,18.70
2018-08-11T05:54:00.356Z,18.60
2018-08-11T05:56:28.011Z,18.70
2018-08-11T05:58:55.721Z,18.70
2018-08-11T06:01:23.424Z,18.60
2018-08-11T06:03:51.270Z,18.60
2018-08-11T06:06:18.959Z,18.70
2018-08-11T06:08:46.613Z,18.70
2018-08-11T06:11:14.320Z,18.70
2018-08-11T06:13:42.009Z,18.80
2018-08-11T06:16:09.708Z,18.90
2018-08-11T06:18:37.364Z,18.90
2018-08-11T06:21:05.279Z,18.90
2018-08-11T06:23:32.997Z,18.90
2018-08-11T06:26:00.660Z,18.90
2018-08-11T06:28:28.356Z,19.00
2018-08-11T06:30:56.072Z,19.10
2018-08-11T06:33:23.777Z,19.10
2018-08-11T06:35:51.429Z,19.20
2018-08-11T06:38:19.145Z,19.30
2018-08-11T06:40:46.899Z,19.40
2018-08-11T06:43:14.582Z,19.50
2018-08-11T06:45:42.304Z,19.50
2018-08-11T06:48:09.970Z,19.50
2018-08-11T06:50:37.629Z,19.50
2018-08-11T06:53:05.341Z,19.50
2018-08-11T06:55:33.046Z,19.60
2018-08-11T06:58:00.709Z,19.60
2018-08-11T07:00:28.404Z,19.60
2018-08-11T07:02:56.064Z,19.70
2018-08-11T07:05:23.899Z,19.60
2018-08-11T07:07:51.612Z,19.70
2018-08-11T07:10:19.304Z,19.70
2018-08-11T07:12:47.320Z,19.80
2018-08-11T07:15:15.058Z,19.80
2018-08-11T07:17:42.708Z,19.80
2018-08-11T07:20:11.376Z,19.90
2018-08-11T07:22:39.072Z,19.90
2018-08-11T07:25:07.037Z,20.00
2018-08-11T07:27:34.728Z,20.10
2018-08-11T07:30:02.458Z,20.20
2018-08-11T07:32:30.141Z,20.30
2018-08-11T07:34:57.892Z,20.40
2018-08-11T07:37:25.609Z,20.50
2018-08-11T07:39:53.288Z,20.50
2018-08-11T07:42:21.028Z,20.60
2018-08-11T07:44:48.700Z,20.70
2018-08-11T07:47:16.445Z,20.60
2018-08-11T07:49:44.116Z,20.60
2018-08-11T07:52:11.840Z,20.60
2018-08-11T07:54:39.503Z,20.60
2018-08-11T07:57:07.172Z,20.60
2018-08-11T07:59:34.877Z,20.60
2018-08-11T08:02:02.604Z,20.60
2018-08-11T08:04:30.367Z,20.70
2018-08-11T08:06:58.037Z,20.80
2018-08-11T08:09:25.778Z,20.80
2018-08-11T08:11:53.481Z,20.90
2018-08-11T08:14:21.165Z,21.00
2018-08-11T08:16:48.864Z,21.10
2018-08-11T08:19:16.580Z,21.10
2018-08-11T08:21:44.257Z,21.20
2018-08-11T08:24:11.960Z,21.30
2018-08-11T08:26:39.654Z,21.50
2018-08-11T08:29:07.364Z,21.60
2018-08-11T08:31:35.054Z,21.80
2018-08-11T08:34:02.709Z,21.80
2018-08-11T08:36:30.486Z,21.90
2018-08-11T08:38:58.318Z,22.00
2018-08-11T08:41:26.221Z,22.10
2018-08-11T08:43:53.912Z,22.10
2018-08-11T08:46:22.144Z,22.20
2018-08-11T08:48:50.070Z,22.30
2018-08-11T08:51:17.743Z,22.50
2018-08-11T08:53:45.836Z,22.50
2018-08-11T08:56:13.520Z,22.60
2018-08-11T08:58:41.271Z,22.70
2018-08-11T09:01:08.967Z,22.70
2018-08-11T09:03:36.684Z,22.80
2018-08-11T09:06:04.400Z,22.80
2018-08-11T09:08:32.105Z,22.80
2018-08-11T09:10:59.796Z,22.80
2018-08-11T09:13:27.485Z,22.80
2018-08-11T09:15:55.196Z,22.80
2018-08-11T09:18:24.109Z,22.80
2018-08-11T09:20:51.817Z,22.70
2018-08-11T09:23:19.512Z,22.70
2018-08-11T09:25:47.223Z,22.70
2018-08-11T09:28:14.900Z,22.70
2018-08-11T09:30:42.621Z,22.60
2018-08-11T09:33:10.337Z,22.50
2018-08-11T09:35:38.056Z,22.50
2018-08-11T09:38:05.779Z,22.50
2018-08-11T09:40:33.673Z,22.60
2018-08-11T09:43:01.362Z,22.70
2018-08-11T09:45:29.393Z,22.60
2018-08-11T09:47:57.137Z,22.60
2018-08-11T09:50:24.852Z,22.60
2018-08-11T09:52:52.610Z,22.60
2018-08-11T09:55:20.337Z,22.60
2018-08-11T09:57:48.049Z,22.70
2018-08-11T10:00:20.040Z,22.70
2018-08-11T10:02:47.718Z,22.70
2018-08-11T10:05:15.697Z,22.90
2018-08-11T10:07:43.402Z,23.10
2018-08-11T10:10:11.122Z,23.10
2018-08-11T10:12:38.788Z,23.20
2018-08-11T10:15:06.592Z,23.40
2018-08-11T10:17:34.306Z,23.50
2018-08-11T10:20:02.051Z,23.50
2018-08-11T10:22:29.724Z,23.50
2018-08-11T10:24:57.466Z,23.50
2018-08-11T10:27:25.182Z,23.60
2018-08-11T10:29:53.024Z,23.80
2018-08-11T10:32:20.724Z,23.90
2018-08-11T10:34:48.421Z,23.90
2018-08-11T10:37:16.116Z,23.90
2018-08-11T10:39:43.903Z,24.00
2018-08-11T10:42:11.577Z,24.20
2018-08-11T10:44:39.253Z,24.40
2018-08-11T10:47:06.977Z,24.50
2018-08-11T10:49:34.645Z,24.50
2018-08-11T10:52:02.340Z,24.40
2018-08-11T10:54:30.042Z,24.40
2018-08-11T10:56:57.852Z,24.60
2018-08-11T10:59:25.576Z,24.80
2018-08-11T11:01:53.242Z,25.00
2018-08-11T11:04:20.959Z,25.20
2018-08-11T11:06:48.715Z,25.30
2018-08-11T11:09:16.376Z,25.40
2018-08-11T11:11:44.100Z,25.50
2018-08-11T11:14:11.786Z,25.70
2018-08-11T11:16:39.581Z,25.90
2018-08-11T11:19:07.642Z,26.10
2018-08-11T11:21:35.313Z,26.30
2018-08-11T11:24:03.089Z,26.40
2018-08-11T11:26:30.804Z,26.60
2018-08-11T11:28:58.498Z,26.60
2018-08-11T11:31:26.218Z,26.60
2018-08-11T11:33:53.901Z,26.80
2018-08-11T11:36:21.592Z,26.80
2018-08-11T11:38:49.261Z,26.90
2018-08-11T11:41:17.010Z,26.90
2018-08-11T11:43:44.775Z,27.00
2018-08-11T11:46:12.643Z,27.00
2018-08-11T11:48:40.360Z,26.80
2018-08-11T11:51:08.037Z,26.90
2018-08-11T11:53:35.700Z,27.00
2018-08-11T11:56:03.420Z,27.00
2018-08-11T11:58:31.121Z,27.20
2018-08-11T12:00:58.780Z,27.40
2018-08-11T12:03:26.503Z,27.50
2018-08-11T12:05:54.270Z,27.50
2018-08-11T12:08:21.852Z,27.80
2018-08-11T12:10:49.568Z,28.00
2018-08-11T12:13:17.266Z,28.10
2018-08-11T12:15:45.012Z,28.20
2018-08-11T12:18:12.669Z,28.40
2018-08-11T12:20:40.366Z,28.50
2018-08-11T12:23:08.069Z,28.60
2018-08-11T12:25:35.757Z,28.60
2018-08-11T12:28:03.506Z,28.80
2018-08-11T12:30:31.245Z,28.80
2018-08-11T12:32:59.412Z,28.90
2018-08-11T12:35:27.155Z,29.00
2018-08-11T12:37:55.576Z,29.00
2018-08-11T12:40:23.320Z,29.10
2018-08-11T12:42:50.992Z,29.20
2018-08-11T12:45:18.769Z,29.30
2018-08-11T12:47:46.722Z,29.40
2018-08-11T12:50:14.417Z,29.50
2018-08-11T12:52:42.157Z,29.70
2018-08-11T12:55:09.832Z,29.60
2018-08-11T12:57:37.532Z,29.50
2018-08-11T13:00:05.772Z,29.50
2018-08-11T13:02:33.472Z,29.60
2018-08-11T13:05:01.164Z,29.90
2018-08-11T13:07:28.866Z,30.30
2018-08-11T13:09:56.524Z,30.50
2018-08-11T13:12:24.213Z,30.70
2018-08-11T13:14:51.880Z,30.90
2018-08-11T13:17:19.625Z,31.10
2018-08-11T13:19:47.332Z,30.90
2018-08-11T13:22:15.052Z,30.90
2018-08-11T13:24:42.708Z,31.10
2018-08-11T13:27:10.497Z,31.30
2018-08-11T13:29:38.245Z,31.50
2018-08-11T13:32:06.163Z,31.80
2018-08-11T13:34:33.887Z,32.10
2018-08-11T13:37:01.637Z,32.10
2018-08-11T13:39:30.392Z,32.20
2018-08-11T13:41:58.044Z,32.30
2018-08-11T13:44:25.747Z,32.40
2018-08-11T13:46:53.442Z,32.30
2018-08-11T13:49:21.175Z,32.40
2018-08-11T13:51:48.841Z,32.70
2018-08-11T13:54:16.544Z,32.80
2018-08-11T13:56:44.216Z,32.90
2018-08-11T13:59:11.968Z,33.20
2018-08-11T14:01:39.652Z,33.30
2018-08-11T14:04:07.380Z,33.30
2018-08-11T14:06:35.113Z,33.30
2018-08-11T14:09:03.517Z,33.20
2018-08-11T14:11:31.185Z,32.90
2018-08-11T14:13:58.867Z,32.80
2018-08-11T14:16:26.588Z,33.00
2018-08-11T14:18:54.303Z,33.00
2018-08-11T14:21:22.049Z,32.80
2018-08-11T14:23:50.741Z,32.70
2018-08-11T14:26:19.477Z,32.30
2018-08-11T14:28:47.164Z,31.90
2018-08-11T14:31:14.856Z,31.40
2018-08-11T14:33:42.581Z,31.30
2018-08-11T14:36:10.252Z,31.50
2018-08-11T14:38:37.990Z,31.70
2018-08-11T14:41:05.774Z,31.90
2018-08-11T14:43:33.452Z,31.60
2018-08-11T14:46:01.208Z,31.50
2018-08-11T14:48:28.868Z,31.50
2018-08-11T14:50:56.581Z,31.20
2018-08-11T14:53:24.248Z,31.00
2018-08-11T14:55:51.944Z,31.00
2018-08-11T14:58:19.680Z,31.20
2018-08-11T15:00:47.377Z,31.00
2018-08-11T15:03:15.128Z,30.70
2018-08-11T15:05:42.824Z,30.50
2018-08-11T15:08:10.484Z,30.50
2018-08-11T15:10:38.254Z,30.20
2018-08-11T15:13:05.948Z,30.10
2018-08-11T15:15:33.671Z,29.90
2018-08-11T15:18:01.339Z,29.80
2018-08-11T15:20:29.084Z,29.80
2018-08-11T15:22:56.776Z,30.10
2018-08-11T15:25:24.452Z,30.10
2018-08-11T15:27:52.140Z,29.90
2018-08-11T15:30:19.832Z,29.90
2018-08-11T15:32:47.499Z,29.80
2018-08-11T15:35:15.200Z,29.70
2018-08-11T15:37:42.880Z,29.70
2018-08-11T15:40:10.557Z,29.70
2018-08-11T15:42:38.257Z,29.80
2018-08-11T15:45:06.760Z,30.20
2018-08-11T15:47:34.461Z,30.60
2018-08-11T15:50:02.157Z,30.80
2018-08-11T15:52:29.832Z,31.10
2018-08-11T15:54:57.524Z,31.20
2018-08-11T15:57:25.252Z,30.80
2018-08-11T15:59:52.921Z,30.60
2018-08-11T16:02:20.580Z,30.40
2018-08-11T16:04:48.328Z,30.10
2018-08-11T16:07:16.016Z,29.90
2018-08-11T16:09:43.681Z,29.80
2018-08-11T16:12:11.365Z,29.70
2018-08-11T16:14:39.084Z,30.00
2018-08-11T16:17:06.753Z,30.50
2018-08-11T16:19:34.468Z,30.70
2018-08-11T16:22:02.375Z,30.60
2018-08-11T16:24:30.045Z,30.80
2018-08-11T16:26:57.824Z,30.90
2018-08-11T16:29:25.611Z,30.80
2018-08-11T16:31:53.221Z,30.70
2018-08-11T16:34:21.011Z,30.70
2018-08-11T16:36:48.728Z,30.70
2018-08-11T16:39:16.458Z,30.70
2018-08-11T16:41:44.118Z,30.50
2018-08-11T16:44:11.801Z,30.10
2018-08-11T16:46:39.512Z,29.70
2018-08-11T16:49:07.176Z,29.60
2018-08-11T16:51:34.845Z,29.40
2018-08-11T16:54:02.541Z,29.20
2018-08-11T16:56:30.244Z,29.00
2018-08-11T16:58:57.965Z,28.80
2018-08-11T17:01:25.648Z,28.60
2018-08-11T17:03:53.612Z,28.40
2018-08-11T17:06:21.320Z,28.20
2018-08-11T17:08:49.080Z,28.00
2018-08-11T17:11:16.732Z,27.80
2018-08-11T17:13:44.421Z,27.70
2018-08-11T17:16:12.129Z,27.50
2018-08-11T17:18:39.835Z,27.40
2018-08-11T17:21:07.500Z,27.30
2018-08-11T17:23:35.253Z,27.20
2018-08-11T17:26:02.914Z,27.10
2018-08-11T17:28:30.609Z,27.00
2018-08-11T17:30:58.277Z,26.90
2018-08-11T17:33:26.281Z,26.70
2018-08-11T17:35:55.096Z,26.60
2018-08-11T17:38:22.806Z,26.50
2018-08-11T17:40:50.529Z,26.40
2018-08-11T17:43:18.212Z,26.20
2018-08-11T17:45:45.909Z,26.10
2018-08-11T17:48:13.617Z,26.00
2018-08-11T17:50:41.282Z,26.00
2018-08-11T17:53:08.985Z,25.80
2018-08-11T17:55:36.752Z,25.70
2018-08-11T17:58:04.520Z,25.70
2018-08-11T18:00:32.217Z,25.60
2018-08-11T18:02:59.913Z,25.50
2018-08-11T18:05:27.620Z,25.40
2018-08-11T18:07:55.290Z,25.40
2018-08-11T18:10:23.004Z,25.30
2018-08-11T18:12:50.777Z,25.30
2018-08-11T18:15:18.480Z,25.20
2018-08-11T18:17:46.185Z,25.10
2018-08-11T18:20:13.909Z,25.00
2018-08-11T18:22:41.916Z,24.90
2018-08-11T18:25:09.636Z,24.90
2018-08-11T18:27:37.368Z,24.80
2018-08-11T18:30:06.556Z,24.80
2018-08-11T18:32:34.268Z,24.70
2018-08-11T18:35:01.965Z,24.70
2018-08-11T18:37:29.616Z,24.60
2018-08-11T18:39:57.313Z,24.60
2018-08-11T18:42:25.013Z,24.60
2018-08-11T18:44:52.719Z,24.60
2018-08-11T18:47:21.469Z,24.50
2018-08-11T18:49:49.171Z,24.40
2018-08-11T18:52:16.949Z,24.40
2018-08-11T18:54:44.696Z,24.40
2018-08-11T18:57:12.460Z,24.30
2018-08-11T18:59:40.233Z,24.30
2018-08-11T19:02:07.924Z,24.30
2018-08-11T19:04:35.592Z,24.30
2018-08-11T19:07:03.338Z,24.30
2018-08-11T19:09:31.012Z,24.20
2018-08-11T19:11:58.740Z,24.20
2018-08-11T19:14:26.408Z,24.20
2018-08-11T19:16:54.104Z,24.20
2018-08-11T19:19:21.798Z,24.10
2018-08-11T19:21:49.492Z,24.10
2018-08-11T19:24:17.190Z,24.10
2018-08-11T19:26:44.881Z,24.00
2018-08-11T19:29:12.596Z,24.10
2018-08-11T19:31:40.303Z,24.00
2018-08-11T19:34:07.968Z,24.00
2018-08-11T19:36:35.646Z,23.90
2018-08-11T19:39:03.776Z,23.90
2018-08-11T19:41:31.492Z,23.80
2018-08-11T19:43:59.233Z,23.80
2018-08-11T19:46:26.985Z,23.70
2018-08-11T19:48:54.644Z,23.70
2018-08-11T19:51:22.345Z,23.70
2018-08-11T19:53:50.009Z,23.70
2018-08-11T19:56:17.806Z,23.60
2018-08-11T19:58:45.527Z,23.60
2018-08-11T20:01:13.216Z,23.50
2018-08-11T20:03:40.924Z,23.50
2018-08-11T20:06:08.681Z,23.50
2018-08-11T20:08:36.380Z,23.50
2018-08-11T20:11:04.045Z,23.50
2018-08-11T20:13:31.704Z,23.40
2018-08-11T20:15:59.409Z,23.40
2018-08-11T20:18:27.119Z,23.40
2018-08-11T20:20:54.814Z,23.50
2018-08-11T20:23:22.700Z,23.50
2018-08-11T20:25:50.364Z,23.50
2018-08-11T20:28:18.021Z,23.40
2018-08-11T20:30:45.770Z,23.40
2018-08-11T20:33:13.444Z,23.40
2018-08-11T20:35:41.194Z,23.30
2018-08-11T20:38:08.889Z,23.30
2018-08-11T20:40:36.554Z,23.30
2018-08-11T20:43:04.312Z,23.30
2018-08-11T20:45:32.068Z,23.30
2018-08-11T20:47:59.720Z,23.30
2018-08-11T20:50:27.436Z,23.20
2018-08-11T20:52:55.140Z,23.20
2018-08-11T20:55:22.883Z,23.10
2018-08-11T20:57:50.599Z,23.10
2018-08-11T21:00:18.338Z,23.10
2018-08-11T21:02:45.985Z,23.00
2018-08-11T21:05:14.412Z,23.00
2018-08-11T21:07:42.402Z,23.00
2018-08-11T21:10:13.080Z,22.80
2018-08-11T21:12:41.340Z,22.60
2018-08-11T21:15:09.691Z,22.40
2018-08-11T21:17:37.884Z,22.30
2018-08-11T21:20:06.436Z,22.20
2018-08-11T21:22:34.358Z,22.10
2018-08-11T21:25:02.132Z,22.10
2018-08-11T21:27:29.840Z,22.00
2018-08-11T21:29:57.492Z,22.00
2018-08-11T21:32:25.209Z,21.90
2018-08-11T21:34:52.904Z,21.90
2018-08-11T21:37:20.596Z,21.80
2018-08-11T21:39:48.248Z,21.80
2018-08-11T21:42:15.976Z,21.80
2018-08-11T21:44:43.685Z,21.70
2018-08-11T21:47:11.368Z,21.70
2018-08-11T21:49:39.108Z,21.70
2018-08-11T21:52:06.916Z,21.60
2018-08-11T21:54:34.589Z,21.60
2018-08-11T21:57:02.284Z,21.50
2018-08-11T21:59:29.985Z,21.50
2018-08-11T22:01:57.697Z,21.40
2018-08-11T22:04:29.652Z,21.40
2018-08-11T22:06:57.373Z,21.30
2018-08-11T22:09:25.074Z,21.30
2018-08-11T22:11:52.769Z,21.20
2018-08-11T22:14:20.446Z,21.20
2018-08-11T22:16:48.141Z,21.10
2018-08-11T22:19:15.873Z,21.00
2018-08-11T22:21:43.569Z,21.00
2018-08-11T22:24:11.237Z,21.00
2018-08-11T22:26:38.964Z,20.90
2018-08-11T22:29:06.680Z,20.90
2018-08-11T22:31:34.428Z,20.80
2018-08-11T22:34:02.209Z,20.80
2018-08-11T22:36:29.913Z,20.70
2018-08-11T22:38:57.628Z,20.70
2018-08-11T22:41:25.344Z,20.60
2018-08-11T22:43:53.042Z,20.60
2018-08-11T22:46:20.769Z,20.50
2018-08-11T22:48:48.472Z,20.50
2018-08-11T22:51:16.137Z,20.50
2018-08-11T22:53:43.849Z,20.50
2018-08-11T22:56:11.520Z,20.50
2018-08-11T22:58:39.252Z,20.50
2018-08-11T23:01:07.085Z,20.40
2018-08-11T23:03:34.798Z,20.40
2018-08-11T23:06:02.483Z,20.30
2018-08-11T23:08:30.182Z,20.30
2018-08-11T23:10:57.898Z,20.20
2018-08-11T23:13:25.608Z,20.20
2018-08-11T23:15:53.324Z,20.10
2018-08-11T23:18:21.009Z,20.10
2018-08-11T23:20:48.713Z,20.10
2018-08-11T23:23:16.481Z,20.10
2018-08-11T23:25:44.149Z,20.00
2018-08-11T23:28:11.860Z,20.00
2018-08-11T23:30:39.572Z,20.00
2018-08-11T23:33:07.240Z,19.90
2018-08-11T23:35:34.932Z,19.90
2018-08-11T23:38:02.710Z,19.80
2018-08-11T23:40:30.400Z,19.80
2018-08-11T23:42:58.166Z,19.70
2018-08-11T23:45:25.928Z,19.70
2018-08-11T23:47:53.597Z,19.60
2018-08-11T23:50:21.257Z,19.60
2018-08-11T23:52:48.972Z,19.50
2018-08-11T23:55:16.680Z,19.50
2018-08-11T23:57:44.404Z,19.50
